Willoughby, OH (44095)

8:56 PM EDT on September 04, 2015 (GMT -0400)
Rt. 91 and Stevens Blvd | | Change Station
CLOSE
Current Station
Personal Weather Station
Location: Eastlake, OH
Elevation: 623 ft
Nearby Weather Stations

Elev 623 ft 41.65 °N, 81.44 °W | Updated 8 minutes ago

Partly Cloudy
Partly Cloudy
77.9 °F
Feels Like 80 °F
N
0.0
Wind Variable Wind from South

Today
High -- | Low -- °F
--% Chance of Precip.
Yesterday
High -- | Low -- °F
Precip. -- in
6:54 AM 7:54 PM
Waning Gibbous, 54% visible
Pressure 30.08 in
Visibility 10.0 miles
Clouds Few 12000 ft
Scattered Clouds 20000 ft
Heat Index 80 °F
Dew Point 68 °F
Humidity 72%
Rainfall 0.00 in
Snow Depth Not available.
UV 0 out of 12
Pollen 8.70 out of 12
Air Quality Not available.
Flu Activity Not available.
METAR KCGF 050045Z 18006KT 10SM FEW120 SCT200 26/19 A3008
Pressure 30.08 in
Visibility 10.0 miles
Clouds Few 12000 ft
Scattered Clouds 20000 ft
Heat Index 80 °F
Dew Point 68 °F
Humidity 72%
Rainfall 0.00 in
Snow Depth Not available.
UV 0 out of 12
Pollen 8.70 out of 12
Air Quality Not available.
Flu Activity Not available.
METAR KCGF 050045Z 18006KT 10SM FEW120 SCT200 26/19 A3008

10-Day Weather Forecast

×

Almanac

Astronomy

Sep. 04, 2015 Rise Set
Actual Time
Civil Twilight
Nautical Twilight
Astronomical Twilight
Moon
Length of Visible Light
Length of Day
Tomorrow will be .
, % of the Moon is Illuminated

Today's Extremes

State Highs State Lows

Community

WunderPhotos

Upload Photos

1,852,367 photos uploaded!

WunderBlogs® & News

Nearby

Air Quality

  Air Quality AQ Index Pollutant
Not available.

Snow Depth

Station Depth Elevation

Earthquake Activity

City Distance Mag. Time & Date
Minimum magnitude displayed is 2.5.

Coastal Water Temperatures

Place Temperature

Stations

Nearby Weather Stations

Station Location Temp. Windchill Dew Point Humidity Wind Precip. Elev Updated Type